createdAt,value
2018-08-04T00:00:24.005Z,58.00
2018-08-04T00:01:28.089Z,57.60
2018-08-04T00:02:31.423Z,57.90
2018-08-04T00:03:34.833Z,57.90
2018-08-04T00:05:41.731Z,58.00
2018-08-04T00:06:45.264Z,58.00
2018-08-04T00:07:49.001Z,58.00
2018-08-04T00:08:53.502Z,58.00
2018-08-04T00:11:00.696Z,57.90
2018-08-04T00:12:04.111Z,57.80
2018-08-04T00:13:07.600Z,57.80
2018-08-04T00:14:11.431Z,57.90
2018-08-04T00:15:15.537Z,57.90
2018-08-04T00:16:19.147Z,57.90
2018-08-04T00:17:22.683Z,58.00
2018-08-04T00:18:26.286Z,58.00
2018-08-04T00:19:29.760Z,57.90
2018-08-04T00:20:33.152Z,58.00
2018-08-04T00:21:37.233Z,58.00
2018-08-04T00:22:42.002Z,58.00
2018-08-04T00:23:46.768Z,58.10
2018-08-04T00:24:51.647Z,58.10
2018-08-04T00:25:55.205Z,58.10
2018-08-04T00:26:58.647Z,58.10
2018-08-04T00:28:02.310Z,58.10
2018-08-04T00:29:05.801Z,58.10
2018-08-04T00:30:11.717Z,58.30
2018-08-04T00:31:15.145Z,58.40
2018-08-04T00:32:20.942Z,58.30
2018-08-04T00:33:24.574Z,58.40
2018-08-04T00:34:28.003Z,58.40
2018-08-04T00:35:31.548Z,58.50
2018-08-04T00:36:35.279Z,58.50
2018-08-04T00:37:39.185Z,58.40
2018-08-04T00:38:42.606Z,58.30
2018-08-04T00:39:46.042Z,58.40
2018-08-04T00:40:49.767Z,58.50
2018-08-04T00:41:53.166Z,58.50
2018-08-04T00:42:56.755Z,58.60
2018-08-04T00:44:00.143Z,58.60
2018-08-04T00:45:04.326Z,58.50
2018-08-04T00:46:07.832Z,58.70
2018-08-04T00:47:11.290Z,58.60
2018-08-04T00:48:14.837Z,58.70
2018-08-04T00:49:18.626Z,58.60
2018-08-04T00:51:25.283Z,59.00
2018-08-04T00:52:29.442Z,59.00
2018-08-04T00:53:33.264Z,59.00
2018-08-04T00:54:37.525Z,59.00
2018-08-04T00:55:41.027Z,59.10
2018-08-04T00:56:44.652Z,59.20
2018-08-04T00:57:49.094Z,59.30
2018-08-04T00:58:52.853Z,59.80
2018-08-04T01:01:00.440Z,59.30
2018-08-04T01:02:03.810Z,59.30
2018-08-04T01:03:07.242Z,59.40
2018-08-04T01:04:10.692Z,59.50
2018-08-04T01:05:14.183Z,59.60
2018-08-04T01:06:17.645Z,59.60
2018-08-04T01:07:21.075Z,59.70
2018-08-04T01:08:24.714Z,59.80
2018-08-04T01:09:28.514Z,59.70
2018-08-04T01:10:31.918Z,59.80
2018-08-04T01:11:35.281Z,59.90
2018-08-04T01:12:38.634Z,60.60
2018-08-04T01:13:41.960Z,59.80
2018-08-04T01:14:45.460Z,59.80
2018-08-04T01:15:48.910Z,59.90
2018-08-04T01:16:52.544Z,59.80
2018-08-04T01:17:56.163Z,59.70
2018-08-04T01:19:00.474Z,59.70
2018-08-04T01:20:06.310Z,59.70
2018-08-04T01:21:10.053Z,59.70
2018-08-04T01:22:13.500Z,59.60
2018-08-04T01:23:17.042Z,59.60
2018-08-04T01:24:20.512Z,60.30
2018-08-04T01:25:24.014Z,59.50
2018-08-04T01:26:27.660Z,59.50
2018-08-04T01:27:31.618Z,59.50
2018-08-04T01:29:39.829Z,59.40
2018-08-04T01:30:43.371Z,59.40
2018-08-04T01:31:46.970Z,59.30
2018-08-04T01:32:50.548Z,59.40
2018-08-04T01:33:54.908Z,59.40
2018-08-04T01:34:59.177Z,59.50
2018-08-04T01:36:04.199Z,59.60
2018-08-04T01:37:07.890Z,59.70
2018-08-04T01:38:11.360Z,59.70
2018-08-04T01:39:14.690Z,59.70
2018-08-04T01:40:18.799Z,59.80
2018-08-04T01:41:23.126Z,59.80
2018-08-04T01:42:26.670Z,59.90
2018-08-04T01:43:30.496Z,59.90
2018-08-04T01:44:34.336Z,59.90
2018-08-04T01:45:37.872Z,60.00
2018-08-04T01:46:42.984Z,60.00
2018-08-04T01:47:46.636Z,60.00
2018-08-04T01:48:50.366Z,60.10
2018-08-04T01:49:54.215Z,60.20
2018-08-04T01:50:58.718Z,60.20
2018-08-04T01:52:02.353Z,61.00
2018-08-04T01:53:06.111Z,60.00
2018-08-04T01:54:09.594Z,60.30
2018-08-04T01:55:13.472Z,60.40
2018-08-04T01:56:16.920Z,60.50
2018-08-04T01:57:21.759Z,60.50
2018-08-04T01:58:25.420Z,60.50
2018-08-04T02:00:33.472Z,60.70
2018-08-04T02:01:37.384Z,60.80
2018-08-04T02:02:41.001Z,61.60
2018-08-04T02:03:44.508Z,60.90
2018-08-04T02:04:47.847Z,60.80
2018-08-04T02:05:51.181Z,60.90
2018-08-04T02:06:54.512Z,61.50
2018-08-04T02:07:58.339Z,60.90
2018-08-04T02:09:01.826Z,60.80
2018-08-04T02:10:05.448Z,60.90
2018-08-04T02:11:08.923Z,60.90
2018-08-04T02:12:12.390Z,60.90
2018-08-04T02:13:16.007Z,61.00
2018-08-04T02:14:19.398Z,61.10
2018-08-04T02:15:22.764Z,61.10
2018-08-04T02:16:26.124Z,61.00
2018-08-04T02:17:29.424Z,61.00
2018-08-04T02:18:33.558Z,61.10
2018-08-04T02:19:37.044Z,61.20
2018-08-04T02:20:40.604Z,61.30
2018-08-04T02:21:44.277Z,61.30
2018-08-04T02:22:47.765Z,61.50
2018-08-04T02:23:51.349Z,61.60
2018-08-04T02:24:54.815Z,61.70
2018-08-04T02:25:58.173Z,61.70
2018-08-04T02:27:01.521Z,61.90
2018-08-04T02:28:04.947Z,62.00
2018-08-04T02:29:08.396Z,62.50
2018-08-04T02:30:11.913Z,62.00
2018-08-04T02:31:15.590Z,62.00
2018-08-04T02:32:20.484Z,62.00
2018-08-04T02:33:24.239Z,62.00
2018-08-04T02:34:28.561Z,62.00
2018-08-04T02:35:33.286Z,62.20
2018-08-04T02:36:37.034Z,62.20
2018-08-04T02:37:41.698Z,62.20
2018-08-04T02:38:45.267Z,62.30
2018-08-04T02:39:48.737Z,62.20
2018-08-04T02:40:52.505Z,62.40
2018-08-04T02:41:56.212Z,62.40
2018-08-04T02:42:59.743Z,62.30
2018-08-04T02:44:03.306Z,62.20
2018-08-04T02:45:07.317Z,62.80
2018-08-04T02:46:10.860Z,62.20
2018-08-04T02:47:15.437Z,62.20
2018-08-04T02:48:18.980Z,62.20
2018-08-04T02:49:22.563Z,62.20
2018-08-04T02:50:26.180Z,62.10
2018-08-04T02:51:29.679Z,62.90
2018-08-04T02:52:33.564Z,62.10
2018-08-04T02:53:37.079Z,62.20
2018-08-04T02:54:40.536Z,62.20
2018-08-04T02:55:43.959Z,62.10
2018-08-04T02:56:47.756Z,62.30
2018-08-04T02:57:51.132Z,62.40
2018-08-04T02:58:54.522Z,62.40
2018-08-04T02:59:58.093Z,62.20
2018-08-04T03:01:02.153Z,62.30
2018-08-04T03:02:07.218Z,62.40
2018-08-04T03:03:11.103Z,62.40
2018-08-04T03:04:14.448Z,62.30
2018-08-04T03:05:18.463Z,62.40
2018-08-04T03:06:22.065Z,62.20
2018-08-04T03:08:28.999Z,62.20
2018-08-04T03:09:32.352Z,62.20
2018-08-04T03:10:37.707Z,62.10
2018-08-04T03:11:41.576Z,62.20
2018-08-04T03:12:45.098Z,62.20
2018-08-04T03:13:48.644Z,62.30
2018-08-04T03:14:52.714Z,62.30
2018-08-04T03:15:56.075Z,62.40
2018-08-04T03:16:59.872Z,62.40
2018-08-04T03:18:03.334Z,62.40
2018-08-04T03:19:06.716Z,62.50
2018-08-04T03:20:10.120Z,62.50
2018-08-04T03:21:13.534Z,62.50
2018-08-04T03:22:17.070Z,63.30
2018-08-04T03:23:20.433Z,62.60
2018-08-04T03:24:23.898Z,62.70
2018-08-04T03:25:27.276Z,62.60
2018-08-04T03:26:32.319Z,63.30
2018-08-04T03:27:35.768Z,62.70
2018-08-04T03:28:39.221Z,62.90
2018-08-04T03:29:42.656Z,62.90
2018-08-04T03:30:46.046Z,63.00
2018-08-04T03:31:49.505Z,62.90
2018-08-04T03:32:53.837Z,63.20
2018-08-04T03:33:57.320Z,63.30
2018-08-04T03:35:00.828Z,63.40
2018-08-04T03:36:04.602Z,63.50
2018-08-04T03:37:08.049Z,63.90
2018-08-04T03:38:11.461Z,64.00
2018-08-04T03:39:14.853Z,64.10
2018-08-04T03:40:18.311Z,64.20
2018-08-04T03:41:21.678Z,64.30
2018-08-04T03:42:25.001Z,64.30
2018-08-04T03:43:28.616Z,64.20
2018-08-04T03:44:32.504Z,64.20
2018-08-04T03:45:36.415Z,64.10
2018-08-04T03:46:39.821Z,64.10
2018-08-04T03:47:43.154Z,64.20
2018-08-04T03:48:46.509Z,64.30
2018-08-04T03:49:50.272Z,64.20
2018-08-04T03:50:54.326Z,64.10
2018-08-04T03:51:57.949Z,64.10
2018-08-04T03:53:01.387Z,64.20
2018-08-04T03:54:04.994Z,64.20
2018-08-04T03:55:08.459Z,64.10
2018-08-04T03:56:11.895Z,64.20
2018-08-04T03:57:15.320Z,64.10
2018-08-04T03:58:18.644Z,64.10
2018-08-04T03:59:22.198Z,64.20
2018-08-04T04:00:25.665Z,64.20
2018-08-04T04:01:29.133Z,64.20
2018-08-04T04:02:32.745Z,64.90
2018-08-04T04:04:39.714Z,64.30
2018-08-04T04:05:43.241Z,64.30
2018-08-04T04:06:46.906Z,64.30
2018-08-04T04:07:51.562Z,64.30
2018-08-04T04:08:55.093Z,64.20
2018-08-04T04:09:58.827Z,64.00
2018-08-04T04:11:03.287Z,63.90
2018-08-04T04:12:06.727Z,63.70
2018-08-04T04:13:10.025Z,63.60
2018-08-04T04:14:13.581Z,63.60
2018-08-04T04:15:17.407Z,63.70
2018-08-04T04:16:20.988Z,64.10
2018-08-04T04:17:24.478Z,64.40
2018-08-04T04:18:27.917Z,64.70
2018-08-04T04:19:31.293Z,65.00
2018-08-04T04:20:35.087Z,65.00
2018-08-04T04:21:38.442Z,65.00
2018-08-04T04:22:41.931Z,64.90
2018-08-04T04:23:45.497Z,64.70
2018-08-04T04:24:49.044Z,64.70
2018-08-04T04:25:52.605Z,64.60
2018-08-04T04:26:56.034Z,64.60
2018-08-04T04:27:59.380Z,64.50
2018-08-04T04:29:02.769Z,64.40
2018-08-04T04:30:06.325Z,64.50
2018-08-04T04:31:09.661Z,64.60
2018-08-04T04:32:13.339Z,64.60
2018-08-04T04:33:16.992Z,64.50
2018-08-04T04:35:23.738Z,64.50
2018-08-04T04:36:27.389Z,64.50
2018-08-04T04:37:30.829Z,64.40
2018-08-04T04:38:34.886Z,64.60
2018-08-04T04:39:38.281Z,64.70
2018-08-04T04:40:41.694Z,64.60
2018-08-04T04:41:45.096Z,64.40
2018-08-04T04:44:55.504Z,64.60
2018-08-04T04:45:58.888Z,64.40
2018-08-04T04:47:02.300Z,64.50
2018-08-04T04:48:05.965Z,64.70
2018-08-04T04:49:11.047Z,64.70
2018-08-04T04:51:17.971Z,65.00
2018-08-04T04:52:21.635Z,64.80
2018-08-04T04:53:25.006Z,64.70
2018-08-04T04:54:28.328Z,64.50
2018-08-04T04:55:31.985Z,64.30
2018-08-04T04:57:39.268Z,64.10
2018-08-04T04:58:42.691Z,64.10
2018-08-04T04:59:46.211Z,64.00
2018-08-04T05:00:49.631Z,63.90
2018-08-04T05:01:53.161Z,63.90
2018-08-04T05:02:56.621Z,63.90
2018-08-04T05:04:00.139Z,63.90
2018-08-04T05:05:03.956Z,63.90
2018-08-04T05:06:07.706Z,63.80
2018-08-04T05:07:11.390Z,63.90
2018-08-04T05:08:14.923Z,64.00
2018-08-04T05:09:18.297Z,64.00
2018-08-04T05:10:21.712Z,63.90
2018-08-04T05:11:25.303Z,63.80
2018-08-04T05:12:29.096Z,63.70
2018-08-04T05:13:32.490Z,63.50
2018-08-04T05:14:36.428Z,63.60
2018-08-04T05:15:41.179Z,63.50
2018-08-04T05:16:44.700Z,63.50
2018-08-04T05:17:48.223Z,63.60
2018-08-04T05:18:51.791Z,64.10
2018-08-04T05:19:55.235Z,63.50
2018-08-04T05:22:02.761Z,63.80
2018-08-04T05:23:07.235Z,63.30
2018-08-04T05:24:10.764Z,63.90
2018-08-04T05:25:14.220Z,63.00
2018-08-04T05:26:17.642Z,63.60
2018-08-04T05:27:22.412Z,62.90
2018-08-04T05:28:27.269Z,63.50
2018-08-04T05:30:35.016Z,62.80
2018-08-04T05:31:39.270Z,62.70
2018-08-04T05:32:42.836Z,62.60
2018-08-04T05:33:46.561Z,62.40
2018-08-04T05:34:50.132Z,62.20
2018-08-04T05:35:54.237Z,62.00
2018-08-04T05:36:57.781Z,62.00
2018-08-04T05:38:01.386Z,62.00
2018-08-04T05:40:11.617Z,61.60
2018-08-04T05:41:15.158Z,61.70
2018-08-04T05:42:21.107Z,61.70
2018-08-04T05:43:24.731Z,61.60
2018-08-04T05:44:28.262Z,61.60
2018-08-04T05:45:31.656Z,61.30
2018-08-04T05:46:35.492Z,61.80
2018-08-04T05:47:38.876Z,61.50
2018-08-04T05:48:42.388Z,60.60
2018-08-04T05:49:45.822Z,60.60
2018-08-04T05:50:49.369Z,60.60
2018-08-04T05:51:52.861Z,60.40
2018-08-04T05:52:56.290Z,60.40
2018-08-04T05:53:59.755Z,60.50
2018-08-04T05:55:03.675Z,60.60
2018-08-04T05:56:07.174Z,60.70
2018-08-04T05:57:11.139Z,60.80
2018-08-04T05:58:14.628Z,60.80
2018-08-04T05:59:18.264Z,60.90
2018-08-04T06:00:21.682Z,61.20
2018-08-04T06:01:25.092Z,62.20
2018-08-04T06:02:28.772Z,62.40
2018-08-04T06:03:32.269Z,62.50
2018-08-04T06:04:36.180Z,62.90
2018-08-04T06:05:39.748Z,63.00
2018-08-04T06:06:44.609Z,63.00
2018-08-04T06:07:48.390Z,62.80
2018-08-04T06:08:51.838Z,62.80
2018-08-04T06:09:56.167Z,62.60
2018-08-04T06:11:00.224Z,62.70
2018-08-04T06:12:04.713Z,62.80
2018-08-04T06:13:08.792Z,62.80
2018-08-04T06:14:12.466Z,62.60
2018-08-04T06:15:16.474Z,62.60
2018-08-04T06:16:20.050Z,62.20
2018-08-04T06:17:23.527Z,62.30
2018-08-04T06:18:27.074Z,62.40
2018-08-04T06:19:30.582Z,62.60
2018-08-04T06:20:33.992Z,62.70
2018-08-04T06:21:37.532Z,62.70
2018-08-04T06:22:41.404Z,62.70
2018-08-04T06:23:44.742Z,62.90
2018-08-04T06:24:48.182Z,62.80
2018-08-04T06:25:51.773Z,62.80
2018-08-04T06:27:59.043Z,62.70
2018-08-04T06:29:02.630Z,62.80
2018-08-04T06:30:08.861Z,63.20
2018-08-04T06:31:12.590Z,63.70
2018-08-04T06:33:19.537Z,64.10
2018-08-04T06:34:22.976Z,63.90
2018-08-04T06:35:26.332Z,63.60
2018-08-04T06:36:29.768Z,63.80
2018-08-04T06:37:33.439Z,63.60
2018-08-04T06:38:37.200Z,64.10
2018-08-04T06:39:41.032Z,63.80
2018-08-04T06:40:44.647Z,63.70
2018-08-04T06:41:48.757Z,63.90
2018-08-04T06:42:52.251Z,64.20
2018-08-04T06:43:55.724Z,64.30
2018-08-04T06:44:59.159Z,64.50
2018-08-04T06:46:02.758Z,64.50
2018-08-04T06:47:06.986Z,64.50
2018-08-04T06:48:10.730Z,64.70
2018-08-04T06:49:14.418Z,65.20
2018-08-04T06:50:17.960Z,64.50
2018-08-04T06:51:21.435Z,64.40
2018-08-04T06:52:24.824Z,64.20
2018-08-04T06:53:28.231Z,64.00
2018-08-04T06:54:31.875Z,64.20
2018-08-04T06:55:35.449Z,63.90
2018-08-04T06:56:39.107Z,63.60
2018-08-04T06:57:42.586Z,63.60
2018-08-04T06:58:45.960Z,63.50
2018-08-04T06:59:49.440Z,63.70
2018-08-04T07:00:52.825Z,63.90
2018-08-04T07:02:59.608Z,63.90
2018-08-04T07:04:03.069Z,63.90
2018-08-04T07:05:06.557Z,63.90
2018-08-04T07:06:10.004Z,63.70
2018-08-04T07:07:13.513Z,63.50
2018-08-04T07:08:17.186Z,63.80
2018-08-04T07:09:20.912Z,64.00
2018-08-04T07:10:24.347Z,64.00
2018-08-04T07:11:27.899Z,64.10
2018-08-04T07:12:31.641Z,64.20
2018-08-04T07:13:35.100Z,64.90
2018-08-04T07:14:38.540Z,64.40
2018-08-04T07:15:42.511Z,64.50
2018-08-04T07:16:47.182Z,64.10
2018-08-04T07:17:55.190Z,63.90
2018-08-04T07:18:58.613Z,63.60
2018-08-04T07:20:02.487Z,63.70
2018-08-04T07:21:06.472Z,63.80
2018-08-04T07:22:10.582Z,64.10
2018-08-04T07:23:14.301Z,64.40
2018-08-04T07:24:19.642Z,65.10
2018-08-04T07:25:23.441Z,65.10
2018-08-04T07:26:28.559Z,65.60
2018-08-04T07:27:32.304Z,65.90
2018-08-04T07:28:36.083Z,65.90
2018-08-04T07:29:39.794Z,65.60
2018-08-04T07:30:43.468Z,65.90
2018-08-04T07:31:47.039Z,65.80
2018-08-04T07:32:50.494Z,65.80
2018-08-04T07:33:53.930Z,66.10
2018-08-04T07:34:57.524Z,66.50
2018-08-04T07:36:00.958Z,66.60
2018-08-04T07:37:05.007Z,66.50
2018-08-04T07:38:08.366Z,66.20
2018-08-04T07:39:11.933Z,65.90
2018-08-04T07:40:15.353Z,65.90
2018-08-04T07:41:18.866Z,65.50
2018-08-04T07:42:22.317Z,65.80
2018-08-04T07:43:25.912Z,65.90
2018-08-04T07:44:29.329Z,65.60
2018-08-04T07:45:32.788Z,65.40
2018-08-04T07:46:37.124Z,66.30
2018-08-04T07:47:40.911Z,65.40
2018-08-04T07:48:44.713Z,64.80
2018-08-04T07:49:48.225Z,65.30
2018-08-04T07:50:58.939Z,64.50
2018-08-04T07:52:04.465Z,64.80
2018-08-04T07:53:07.907Z,64.30
2018-08-04T07:54:11.482Z,62.70
2018-08-04T07:55:14.849Z,62.70
2018-08-04T07:56:18.362Z,62.60
2018-08-04T07:57:21.876Z,62.20
2018-08-04T07:58:25.352Z,62.00
2018-08-04T07:59:29.066Z,61.80
2018-08-04T08:00:32.753Z,61.20
2018-08-04T08:01:36.133Z,60.40
2018-08-04T08:02:39.795Z,60.10
2018-08-04T08:03:44.026Z,59.90
2018-08-04T08:04:47.556Z,59.50
2018-08-04T08:05:51.237Z,59.90
2018-08-04T08:06:54.730Z,60.10
2018-08-04T08:07:58.196Z,59.80
2018-08-04T08:09:02.677Z,59.60
2018-08-04T08:10:06.937Z,59.70
2018-08-04T08:11:10.537Z,59.60
2018-08-04T08:12:14.005Z,60.00
2018-08-04T08:13:17.573Z,59.70
2018-08-04T08:14:21.031Z,59.40
2018-08-04T08:15:24.665Z,59.50
2018-08-04T08:16:28.111Z,59.10
2018-08-04T08:18:35.298Z,58.00
2018-08-04T08:19:38.896Z,57.60
2018-08-04T08:20:42.493Z,57.50
2018-08-04T08:21:46.296Z,57.40
2018-08-04T08:22:50.259Z,57.20
2018-08-04T08:24:57.194Z,57.30
2018-08-04T08:26:13.574Z,57.50
2018-08-04T08:27:17.524Z,58.00
2018-08-04T08:28:21.133Z,57.90
2018-08-04T08:29:24.572Z,57.30
2018-08-04T08:30:28.038Z,57.70
2018-08-04T08:31:31.578Z,57.50
2018-08-04T08:32:35.355Z,57.50
2018-08-04T08:33:39.686Z,57.80
2018-08-04T08:34:43.194Z,58.10
2018-08-04T08:35:46.708Z,58.40
2018-08-04T08:36:50.145Z,57.60
2018-08-04T08:37:53.608Z,57.90
2018-08-04T08:38:57.127Z,57.70
2018-08-04T08:40:01.171Z,57.20
2018-08-04T08:41:05.627Z,57.10
2018-08-04T08:43:12.349Z,56.90
2018-08-04T08:44:15.809Z,56.60
2018-08-04T08:45:19.210Z,56.80
2018-08-04T08:46:23.286Z,56.80
2018-08-04T08:47:26.904Z,57.50
2018-08-04T08:48:30.356Z,56.70
2018-08-04T08:50:37.554Z,56.50
2018-08-04T08:51:41.047Z,55.90
2018-08-04T08:52:44.833Z,56.00
2018-08-04T08:53:48.357Z,55.40
2018-08-04T08:54:51.988Z,55.80
2018-08-04T08:55:55.552Z,56.20
2018-08-04T08:56:59.294Z,55.80
2018-08-04T08:59:07.456Z,55.90
2018-08-04T09:00:11.563Z,55.00
2018-08-04T09:01:15.187Z,55.20
2018-08-04T09:02:18.897Z,55.30
2018-08-04T09:03:22.378Z,55.10
2018-08-04T09:04:26.080Z,55.50
2018-08-04T09:05:29.794Z,55.50
2018-08-04T09:06:33.500Z,55.70
2018-08-04T09:07:36.981Z,55.50
2018-08-04T09:08:40.733Z,55.50
2018-08-04T09:09:44.386Z,55.70
2018-08-04T09:10:47.925Z,56.10
2018-08-04T09:11:51.810Z,56.10
2018-08-04T09:12:55.704Z,56.10
2018-08-04T09:15:02.450Z,55.70
2018-08-04T09:16:05.878Z,55.80
2018-08-04T09:17:09.357Z,55.50
2018-08-04T09:18:13.065Z,55.20
2018-08-04T09:19:16.512Z,54.50
2018-08-04T09:20:19.894Z,53.30
2018-08-04T09:21:23.211Z,53.40
2018-08-04T09:22:26.690Z,52.70
2018-08-04T09:23:30.082Z,52.10
2018-08-04T09:26:40.132Z,52.40
2018-08-04T09:27:43.950Z,52.30
2018-08-04T09:28:47.499Z,51.60
2018-08-04T09:29:51.021Z,51.40
2018-08-04T09:30:54.643Z,51.70
2018-08-04T09:31:58.453Z,52.30
2018-08-04T09:33:02.123Z,52.30
2018-08-04T09:34:06.026Z,51.30
2018-08-04T09:35:09.572Z,51.40
2018-08-04T09:38:19.967Z,51.80
2018-08-04T09:39:23.531Z,51.70
2018-08-04T09:40:27.077Z,51.70
2018-08-04T09:41:30.509Z,51.80
2018-08-04T09:42:33.897Z,51.70
2018-08-04T09:44:41.093Z,52.20
2018-08-04T09:45:45.141Z,51.50
2018-08-04T09:46:48.564Z,51.40
2018-08-04T09:47:52.485Z,51.50
2018-08-04T09:48:56.605Z,51.50
2018-08-04T09:50:00.413Z,51.00
2018-08-04T09:51:04.199Z,50.20
2018-08-04T09:52:07.955Z,50.30
2018-08-04T09:53:11.466Z,50.50
2018-08-04T09:54:15.287Z,50.80
2018-08-04T09:55:18.868Z,51.00
2018-08-04T09:56:22.487Z,51.10
2018-08-04T09:57:26.065Z,50.50
2018-08-04T09:58:29.625Z,51.40
2018-08-04T09:59:33.331Z,51.30
2018-08-04T10:00:42.667Z,51.20
2018-08-04T10:01:46.126Z,51.60
2018-08-04T10:02:49.659Z,51.40
2018-08-04T10:03:53.358Z,51.10
2018-08-04T10:06:00.633Z,50.60
2018-08-04T10:07:04.385Z,50.40
2018-08-04T10:08:07.848Z,50.90
2018-08-04T10:10:15.515Z,51.50
2018-08-04T10:11:19.431Z,51.50
2018-08-04T10:12:23.053Z,51.60
2018-08-04T10:13:26.490Z,51.00
2018-08-04T10:15:38.586Z,50.80
2018-08-04T10:16:42.346Z,50.60
2018-08-04T10:17:46.028Z,51.00
2018-08-04T10:18:50.073Z,51.20
2018-08-04T10:19:53.739Z,51.40
2018-08-04T10:20:57.573Z,51.60
2018-08-04T10:22:01.306Z,51.40
2018-08-04T10:23:05.101Z,51.00
2018-08-04T10:24:08.541Z,51.30
2018-08-04T10:25:12.028Z,51.60
2018-08-04T10:26:15.733Z,51.80
2018-08-04T10:27:19.368Z,51.60
2018-08-04T10:28:22.776Z,51.90
2018-08-04T10:29:26.192Z,52.10
2018-08-04T10:31:33.131Z,51.30
2018-08-04T10:32:36.881Z,50.20
2018-08-04T10:33:40.557Z,50.10
2018-08-04T10:34:44.182Z,50.40
2018-08-04T10:35:47.641Z,50.00
2018-08-04T10:36:51.059Z,49.40
2018-08-04T10:37:54.470Z,49.80
2018-08-04T10:38:57.870Z,50.10
2018-08-04T10:40:01.581Z,49.90
2018-08-04T10:41:05.115Z,49.40
2018-08-04T10:42:08.626Z,49.70
2018-08-04T10:43:11.986Z,49.50
2018-08-04T10:44:15.432Z,49.50
2018-08-04T10:45:18.993Z,49.70
2018-08-04T10:46:22.304Z,49.70
2018-08-04T10:47:25.660Z,49.20
2018-08-04T10:48:29.316Z,49.20
2018-08-04T10:49:32.802Z,48.70
2018-08-04T10:50:36.460Z,48.90
2018-08-04T10:51:39.929Z,48.90
2018-08-04T10:52:43.785Z,49.30
2018-08-04T10:53:47.315Z,49.90
2018-08-04T10:54:51.334Z,49.90
2018-08-04T10:55:54.902Z,49.10
2018-08-04T10:56:58.457Z,49.50
2018-08-04T10:58:01.908Z,49.20
2018-08-04T11:00:10.112Z,49.40
2018-08-04T11:02:16.881Z,49.20
2018-08-04T11:03:20.824Z,48.50
2018-08-04T11:04:24.429Z,48.70
2018-08-04T11:05:27.960Z,48.80
2018-08-04T11:07:34.646Z,47.90
2018-08-04T11:08:38.171Z,47.30
2018-08-04T11:09:42.152Z,47.40
2018-08-04T11:10:45.806Z,48.00
2018-08-04T11:11:49.284Z,47.80
2018-08-04T11:12:52.783Z,47.70
2018-08-04T11:13:56.514Z,47.90
2018-08-04T11:15:00.056Z,47.00
2018-08-04T11:17:07.151Z,46.90
2018-08-04T11:18:10.669Z,46.70
2018-08-04T11:19:14.079Z,46.90
2018-08-04T11:20:17.614Z,47.30
2018-08-04T11:22:24.507Z,47.90
2018-08-04T11:23:27.891Z,48.40
2018-08-04T11:24:31.480Z,48.70
2018-08-04T11:25:35.093Z,47.90
2018-08-04T11:26:38.540Z,47.50
2018-08-04T11:27:42.358Z,48.10
2018-08-04T11:28:45.912Z,47.20
2018-08-04T11:29:49.351Z,47.00
2018-08-04T11:30:52.950Z,47.00
2018-08-04T11:31:56.427Z,47.60
2018-08-04T11:32:59.881Z,47.10
2018-08-04T11:34:03.323Z,47.80
2018-08-04T11:35:06.857Z,47.20
2018-08-04T11:36:10.299Z,46.70
2018-08-04T11:37:13.707Z,46.90
2018-08-04T11:38:17.296Z,46.90
2018-08-04T11:39:20.752Z,46.20
2018-08-04T11:40:24.177Z,46.50
2018-08-04T11:41:27.873Z,45.90
2018-08-04T11:42:31.552Z,46.10
2018-08-04T11:43:35.174Z,46.60
2018-08-04T11:44:38.823Z,45.60
2018-08-04T11:45:42.990Z,45.40
2018-08-04T11:46:46.574Z,45.60
2018-08-04T11:47:50.484Z,45.70
2018-08-04T11:48:53.916Z,45.40
2018-08-04T11:49:57.479Z,45.20
2018-08-04T11:51:00.953Z,45.40
2018-08-04T11:52:04.478Z,45.20
2018-08-04T11:53:07.864Z,45.40
2018-08-04T11:54:11.585Z,45.60
2018-08-04T11:55:14.998Z,45.40
2018-08-04T11:56:18.387Z,45.70
2018-08-04T11:57:21.761Z,45.40
2018-08-04T11:58:25.262Z,45.30
2018-08-04T11:59:28.941Z,46.40
2018-08-04T12:00:33.234Z,45.50
2018-08-04T12:02:40.323Z,45.50
2018-08-04T12:03:43.765Z,45.70
2018-08-04T12:04:51.430Z,45.40
2018-08-04T12:05:55.113Z,45.30
2018-08-04T12:06:58.610Z,45.60
2018-08-04T12:08:02.006Z,45.40
2018-08-04T12:09:10.175Z,45.70
2018-08-04T12:10:13.625Z,45.60
2018-08-04T12:11:17.121Z,46.00
2018-08-04T12:12:20.768Z,46.00
2018-08-04T12:13:24.146Z,46.20
2018-08-04T12:14:27.507Z,46.60
2018-08-04T12:15:30.954Z,45.60
2018-08-04T12:16:34.514Z,46.00
2018-08-04T12:17:38.075Z,46.10
2018-08-04T12:18:41.880Z,45.80
2018-08-04T12:19:45.375Z,46.10
2018-08-04T12:20:49.074Z,46.30
2018-08-04T12:21:52.626Z,45.20
2018-08-04T12:22:56.241Z,45.10
2018-08-04T12:24:00.144Z,45.50
2018-08-04T12:25:03.668Z,44.60
2018-08-04T12:26:08.185Z,45.20
2018-08-04T12:27:11.674Z,44.90
2018-08-04T12:28:15.169Z,44.60
2018-08-04T12:29:18.801Z,44.20
2018-08-04T12:30:22.395Z,44.60
2018-08-04T12:31:26.941Z,44.90
2018-08-04T12:32:30.575Z,45.00
2018-08-04T12:33:34.704Z,44.30
2018-08-04T12:34:38.214Z,44.80
2018-08-04T12:35:41.859Z,44.70
2018-08-04T12:37:48.511Z,45.10
2018-08-04T12:38:51.916Z,45.30
2018-08-04T12:39:55.462Z,44.90
2018-08-04T12:40:58.902Z,45.00
2018-08-04T12:42:03.404Z,44.40
2018-08-04T12:43:07.083Z,44.80
2018-08-04T12:44:10.466Z,45.00
2018-08-04T12:46:17.547Z,43.10
2018-08-04T12:47:21.138Z,43.10
2018-08-04T12:48:28.017Z,42.90
2018-08-04T12:49:32.012Z,44.10
2018-08-04T12:50:35.920Z,43.60
2018-08-04T12:51:39.659Z,43.40
2018-08-04T12:52:43.313Z,43.30
2018-08-04T12:53:47.111Z,43.80
2018-08-04T12:54:50.660Z,44.00
2018-08-04T12:55:54.213Z,43.80
2018-08-04T12:56:58.073Z,43.80
2018-08-04T12:58:01.401Z,44.30
2018-08-04T12:59:04.909Z,44.50
2018-08-04T13:00:08.832Z,44.30
2018-08-04T13:01:12.684Z,44.10
2018-08-04T13:02:16.231Z,44.30
2018-08-04T13:03:20.339Z,43.80
2018-08-04T13:06:32.846Z,43.50
2018-08-04T13:07:36.708Z,43.70
2018-08-04T13:08:40.254Z,43.60
2018-08-04T13:09:43.888Z,43.90
2018-08-04T13:10:50.283Z,44.10
2018-08-04T13:11:53.813Z,43.80
2018-08-04T13:12:57.518Z,44.20
2018-08-04T13:14:01.282Z,44.10
2018-08-04T13:15:07.020Z,44.50
2018-08-04T13:16:10.504Z,45.00
2018-08-04T13:17:14.141Z,44.60
2018-08-04T13:18:17.584Z,44.80
2018-08-04T13:19:21.606Z,44.20
2018-08-04T13:20:25.197Z,43.90
2018-08-04T13:21:29.417Z,43.70
2018-08-04T13:22:32.865Z,43.10
2018-08-04T13:23:36.278Z,43.20
2018-08-04T13:24:39.725Z,43.40
2018-08-04T13:25:43.099Z,43.80
2018-08-04T13:26:46.661Z,44.10
2018-08-04T13:27:50.246Z,43.90
2018-08-04T13:28:53.783Z,44.20
2018-08-04T13:29:57.225Z,43.90
2018-08-04T13:31:07.394Z,44.00
2018-08-04T13:32:10.916Z,44.20
2018-08-04T13:33:14.415Z,43.90
2018-08-04T13:34:17.906Z,43.30
2018-08-04T13:35:21.516Z,44.20
2018-08-04T13:36:25.167Z,43.60
2018-08-04T13:37:28.931Z,43.30
2018-08-04T13:39:35.707Z,43.70
2018-08-04T13:40:39.082Z,44.10
2018-08-04T13:41:42.707Z,43.80
2018-08-04T13:42:46.214Z,44.00
2018-08-04T13:43:49.578Z,44.00
2018-08-04T13:44:53.001Z,43.10
2018-08-04T13:45:56.320Z,42.90
2018-08-04T13:46:59.810Z,43.30
2018-08-04T13:48:03.715Z,43.40
2018-08-04T13:49:07.293Z,43.20
2018-08-04T13:51:14.269Z,43.80
2018-08-04T13:52:18.273Z,43.30
2018-08-04T13:53:21.742Z,43.10
2018-08-04T13:55:28.800Z,42.90
2018-08-04T13:56:32.298Z,43.90
2018-08-04T13:57:35.869Z,43.40
2018-08-04T13:58:39.398Z,43.00
2018-08-04T13:59:42.797Z,43.20
2018-08-04T14:00:46.394Z,43.30
2018-08-04T14:01:50.020Z,43.50
2018-08-04T14:02:53.421Z,43.40
2018-08-04T14:03:57.039Z,43.50
2018-08-04T14:05:00.748Z,43.50
2018-08-04T14:06:04.513Z,43.10
2018-08-04T14:07:08.840Z,43.30
2018-08-04T14:08:12.410Z,43.70
2018-08-04T14:09:16.783Z,43.70
2018-08-04T14:10:20.777Z,43.50
2018-08-04T14:11:24.163Z,43.90
2018-08-04T14:12:27.730Z,43.70
2018-08-04T14:13:31.179Z,43.70
2018-08-04T14:14:34.544Z,43.50
2018-08-04T14:15:38.221Z,44.30
2018-08-04T14:16:42.082Z,44.40
2018-08-04T14:17:45.748Z,44.40
2018-08-04T14:18:49.209Z,43.70
2018-08-04T14:19:53.005Z,43.50
2018-08-04T14:20:56.731Z,43.70
2018-08-04T14:22:00.238Z,43.20
2018-08-04T14:23:03.928Z,43.40
2018-08-04T14:24:07.626Z,43.20
2018-08-04T14:25:11.029Z,42.80
2018-08-04T14:26:14.828Z,42.20
2018-08-04T14:27:20.033Z,42.10
2018-08-04T14:28:24.404Z,41.90
2018-08-04T14:29:28.041Z,42.00
2018-08-04T14:30:31.657Z,41.80